sensor_id;sensor_type;location;lat;lon;timestamp;temperature;humidity
24035;DHT22;12242;50.952;4.678;2023-12-22T00:01:01;10.10;99.90
24035;DHT22;12242;50.952;4.678;2023-12-22T00:03:28;10.20;99.90
24035;DHT22;12242;50.952;4.678;2023-12-22T00:05:56;10.30;99.90
24035;DHT22;12242;50.952;4.678;2023-12-22T00:08:24;10.20;99.90
24035;DHT22;12242;50.952;4.678;2023-12-22T00:10:55;9.90;99.90
24035;DHT22;12242;50.952;4.678;2023-12-22T00:13:25;9.90;99.90
24035;DHT22;12242;50.952;4.678;2023-12-22T00:15:53;10.00;99.90
24035;DHT22;12242;50.952;4.678;2023-12-22T00:18:23;10.00;99.90
24035;DHT22;12242;50.952;4.678;2023-12-22T00:20:51;10.00;99.90
24035;DHT22;12242;50.952;4.678;2023-12-22T00:23:21;10.00;99.90
24035;DHT22;12242;50.952;4.678;2023-12-22T00:25:48;10.00;99.90
24035;DHT22;12242;50.952;4.678;2023-12-22T00:28:17;10.00;99.90
24035;DHT22;12242;50.952;4.678;2023-12-22T00:30:45;10.00;99.90
24035;DHT22;12242;50.952;4.678;2023-12-22T00:33:13;9.90;99.90
24035;DHT22;12242;50.952;4.678;2023-12-22T00:35:41;10.10;99.90
24035;DHT22;12242;50.952;4.678;2023-12-22T00:38:10;10.20;99.90
24035;DHT22;12242;50.952;4.678;2023-12-22T00:40:40;10.10;99.90
24035;DHT22;12242;50.952;4.678;2023-12-22T00:43:07;10.10;99.90
24035;DHT22;12242;50.952;4.678;2023-12-22T00:45:37;10.10;99.90
24035;DHT22;12242;50.952;4.678;2023-12-22T00:48:07;10.00;99.90
24035;DHT22;12242;50.952;4.678;2023-12-22T00:50:35;10.00;99.90
24035;DHT22;12242;50.952;4.678;2023-12-22T00:53:03;10.10;99.90
24035;DHT22;12242;50.952;4.678;2023-12-22T00:55:30;10.20;99.90
24035;DHT22;12242;50.952;4.678;2023-12-22T00:58:01;10.10;99.90
24035;DHT22;12242;50.952;4.678;2023-12-22T01:00:29;10.20;99.90
24035;DHT22;12242;50.952;4.678;2023-12-22T01:02:57;10.20;99.90
24035;DHT22;12242;50.952;4.678;2023-12-22T01:05:25;10.10;99.90
24035;DHT22;12242;50.952;4.678;2023-12-22T01:07:53;9.90;99.90
24035;DHT22;12242;50.952;4.678;2023-12-22T01:10:21;10.00;99.90
24035;DHT22;12242;50.952;4.678;2023-12-22T01:12:49;10.10;99.90
24035;DHT22;12242;50.952;4.678;2023-12-22T01:15:19;10.00;99.90
24035;DHT22;12242;50.952;4.678;2023-12-22T01:17:46;10.10;99.90
24035;DHT22;12242;50.952;4.678;2023-12-22T01:20:15;10.00;99.90
24035;DHT22;12242;50.952;4.678;2023-12-22T01:22:42;10.00;99.90
24035;DHT22;12242;50.952;4.678;2023-12-22T01:25:10;10.00;99.90
24035;DHT22;12242;50.952;4.678;2023-12-22T01:27:41;9.80;99.90
24035;DHT22;12242;50.952;4.678;2023-12-22T01:30:09;9.90;99.90
24035;DHT22;12242;50.952;4.678;2023-12-22T01:32:36;9.80;99.90
24035;DHT22;12242;50.952;4.678;2023-12-22T01:35:06;9.70;99.90
24035;DHT22;12242;50.952;4.678;2023-12-22T01:37:37;9.50;99.90
24035;DHT22;12242;50.952;4.678;2023-12-22T01:40:05;9.20;99.90
24035;DHT22;12242;50.952;4.678;2023-12-22T01:42:33;9.20;99.90
24035;DHT22;12242;50.952;4.678;2023-12-22T01:45:08;9.40;99.90
24035;DHT22;12242;50.952;4.678;2023-12-22T01:47:40;9.70;99.90
24035;DHT22;12242;50.952;4.678;2023-12-22T01:50:10;9.90;99.90
24035;DHT22;12242;50.952;4.678;2023-12-22T01:52:39;10.00;99.90
24035;DHT22;12242;50.952;4.678;2023-12-22T01:55:10;9.90;99.90
24035;DHT22;12242;50.952;4.678;2023-12-22T01:57:41;9.90;99.90
24035;DHT22;12242;50.952;4.678;2023-12-22T02:00:09;9.90;99.90
24035;DHT22;12242;50.952;4.678;2023-12-22T02:02:39;9.80;99.90
24035;DHT22;12242;50.952;4.678;2023-12-22T02:05:07;9.90;99.90
24035;DHT22;12242;50.952;4.678;2023-12-22T02:07:41;9.90;99.90
24035;DHT22;12242;50.952;4.678;2023-12-22T02:10:09;9.90;99.90
24035;DHT22;12242;50.952;4.678;2023-12-22T02:12:37;9.90;99.90
24035;DHT22;12242;50.952;4.678;2023-12-22T02:15:06;9.90;99.90
24035;DHT22;12242;50.952;4.678;2023-12-22T02:18:02;10.10;99.90
24035;DHT22;12242;50.952;4.678;2023-12-22T02:20:32;10.30;99.90
24035;DHT22;12242;50.952;4.678;2023-12-22T02:23:02;10.30;99.90
24035;DHT22;12242;50.952;4.678;2023-12-22T02:25:30;10.30;99.90
24035;DHT22;12242;50.952;4.678;2023-12-22T02:28:02;10.30;99.90
24035;DHT22;12242;50.952;4.678;2023-12-22T02:30:48;10.40;99.90
24035;DHT22;12242;50.952;4.678;2023-12-22T02:33:22;10.50;99.90
24035;DHT22;12242;50.952;4.678;2023-12-22T02:36:00;10.20;99.90
24035;DHT22;12242;50.952;4.678;2023-12-22T02:38:31;10.30;99.90
24035;DHT22;12242;50.952;4.678;2023-12-22T02:41:00;10.30;99.90
24035;DHT22;12242;50.952;4.678;2023-12-22T02:43:28;10.30;99.90
24035;DHT22;12242;50.952;4.678;2023-12-22T02:45:56;10.40;99.90
24035;DHT22;12242;50.952;4.678;2023-12-22T02:48:25;10.30;99.90
24035;DHT22;12242;50.952;4.678;2023-12-22T02:50:56;10.30;99.90
24035;DHT22;12242;50.952;4.678;2023-12-22T02:53:26;10.30;99.90
24035;DHT22;12242;50.952;4.678;2023-12-22T02:55:56;10.40;99.90
24035;DHT22;12242;50.952;4.678;2023-12-22T02:58:26;10.50;99.90
24035;DHT22;12242;50.952;4.678;2023-12-22T03:00:54;10.50;99.90
24035;DHT22;12242;50.952;4.678;2023-12-22T03:03:22;10.60;99.90
24035;DHT22;12242;50.952;4.678;2023-12-22T03:05:49;10.50;99.90
24035;DHT22;12242;50.952;4.678;2023-12-22T03:08:21;10.30;99.90
24035;DHT22;12242;50.952;4.678;2023-12-22T03:10:52;10.30;99.90
24035;DHT22;12242;50.952;4.678;2023-12-22T03:13:20;10.20;99.90
24035;DHT22;12242;50.952;4.678;2023-12-22T03:15:47;10.10;99.90
24035;DHT22;12242;50.952;4.678;2023-12-22T03:18:15;10.20;99.90
24035;DHT22;12242;50.952;4.678;2023-12-22T03:20:45;10.00;99.90
24035;DHT22;12242;50.952;4.678;2023-12-22T03:23:13;10.10;99.90
24035;DHT22;12242;50.952;4.678;2023-12-22T03:25:40;10.20;99.90
24035;DHT22;12242;50.952;4.678;2023-12-22T03:28:08;10.40;99.90
24035;DHT22;12242;50.952;4.678;2023-12-22T03:30:36;10.30;99.90
24035;DHT22;12242;50.952;4.678;2023-12-22T03:33:09;10.30;99.90
24035;DHT22;12242;50.952;4.678;2023-12-22T03:35:37;10.30;99.90
24035;DHT22;12242;50.952;4.678;2023-12-22T03:38:05;10.00;99.90
24035;DHT22;12242;50.952;4.678;2023-12-22T03:40:32;10.00;99.90
24035;DHT22;12242;50.952;4.678;2023-12-22T03:43:01;10.10;99.90
24035;DHT22;12242;50.952;4.678;2023-12-22T03:45:28;9.90;99.90
24035;DHT22;12242;50.952;4.678;2023-12-22T03:47:56;10.00;99.90
24035;DHT22;12242;50.952;4.678;2023-12-22T03:50:24;10.10;99.90
24035;DHT22;12242;50.952;4.678;2023-12-22T03:52:52;10.10;99.90
24035;DHT22;12242;50.952;4.678;2023-12-22T03:55:20;9.80;99.90
24035;DHT22;12242;50.952;4.678;2023-12-22T03:57:47;9.90;99.90
24035;DHT22;12242;50.952;4.678;2023-12-22T04:00:17;10.00;99.90
24035;DHT22;12242;50.952;4.678;2023-12-22T04:02:45;10.00;99.90
24035;DHT22;12242;50.952;4.678;2023-12-22T04:05:15;10.00;99.90
24035;DHT22;12242;50.952;4.678;2023-12-22T04:07:43;10.10;99.90
24035;DHT22;12242;50.952;4.678;2023-12-22T04:10:11;10.10;99.90
24035;DHT22;12242;50.952;4.678;2023-12-22T04:12:38;10.00;99.90
24035;DHT22;12242;50.952;4.678;2023-12-22T04:15:06;10.00;99.90
24035;DHT22;12242;50.952;4.678;2023-12-22T04:17:34;9.90;99.90
24035;DHT22;12242;50.952;4.678;2023-12-22T04:20:06;9.90;99.90
24035;DHT22;12242;50.952;4.678;2023-12-22T04:22:36;10.10;99.90
24035;DHT22;12242;50.952;4.678;2023-12-22T04:25:06;10.10;99.90
24035;DHT22;12242;50.952;4.678;2023-12-22T04:27:35;10.10;99.90
24035;DHT22;12242;50.952;4.678;2023-12-22T04:30:03;10.00;99.90
24035;DHT22;12242;50.952;4.678;2023-12-22T04:32:31;10.00;99.90
24035;DHT22;12242;50.952;4.678;2023-12-22T04:34:58;10.00;99.90
24035;DHT22;12242;50.952;4.678;2023-12-22T04:37:28;10.10;99.90
24035;DHT22;12242;50.952;4.678;2023-12-22T04:39:58;10.00;99.90
24035;DHT22;12242;50.952;4.678;2023-12-22T04:42:27;9.90;99.90
24035;DHT22;12242;50.952;4.678;2023-12-22T04:44:55;9.80;99.90
24035;DHT22;12242;50.952;4.678;2023-12-22T04:47:22;9.70;99.90
24035;DHT22;12242;50.952;4.678;2023-12-22T04:49:50;9.70;99.90
24035;DHT22;12242;50.952;4.678;2023-12-22T04:52:18;9.70;99.90
24035;DHT22;12242;50.952;4.678;2023-12-22T04:54:46;9.70;99.90
24035;DHT22;12242;50.952;4.678;2023-12-22T04:57:14;9.60;99.90
24035;DHT22;12242;50.952;4.678;2023-12-22T04:59:45;9.40;99.90
24035;DHT22;12242;50.952;4.678;2023-12-22T05:02:15;9.30;99.90
24035;DHT22;12242;50.952;4.678;2023-12-22T05:04:43;9.20;99.90
24035;DHT22;12242;50.952;4.678;2023-12-22T05:07:10;9.00;99.90
24035;DHT22;12242;50.952;4.678;2023-12-22T05:09:38;9.00;99.90
24035;DHT22;12242;50.952;4.678;2023-12-22T05:12:07;9.00;99.90
24035;DHT22;12242;50.952;4.678;2023-12-22T05:14:35;9.00;99.90
24035;DHT22;12242;50.952;4.678;2023-12-22T05:17:03;8.90;99.90
24035;DHT22;12242;50.952;4.678;2023-12-22T05:19:31;9.00;99.90
24035;DHT22;12242;50.952;4.678;2023-12-22T05:21:59;9.10;99.90
24035;DHT22;12242;50.952;4.678;2023-12-22T05:24:27;9.20;99.90
24035;DHT22;12242;50.952;4.678;2023-12-22T05:26:57;9.20;99.90
24035;DHT22;12242;50.952;4.678;2023-12-22T05:29:25;9.30;99.90
24035;DHT22;12242;50.952;4.678;2023-12-22T05:31:53;9.40;99.90
24035;DHT22;12242;50.952;4.678;2023-12-22T05:34:25;9.40;99.90
24035;DHT22;12242;50.952;4.678;2023-12-22T05:36:53;9.40;99.90
24035;DHT22;12242;50.952;4.678;2023-12-22T05:39:20;9.40;99.90
24035;DHT22;12242;50.952;4.678;2023-12-22T05:41:48;9.40;99.90
24035;DHT22;12242;50.952;4.678;2023-12-22T05:44:16;9.40;99.90
24035;DHT22;12242;50.952;4.678;2023-12-22T05:46:46;9.40;99.90
24035;DHT22;12242;50.952;4.678;2023-12-22T05:49:14;9.60;99.90
24035;DHT22;12242;50.952;4.678;2023-12-22T05:51:44;9.60;99.90
24035;DHT22;12242;50.952;4.678;2023-12-22T05:54:12;9.60;99.90
24035;DHT22;12242;50.952;4.678;2023-12-22T05:56:45;9.70;99.90
24035;DHT22;12242;50.952;4.678;2023-12-22T05:59:12;9.90;99.90
24035;DHT22;12242;50.952;4.678;2023-12-22T06:01:40;9.80;99.90
24035;DHT22;12242;50.952;4.678;2023-12-22T06:04:07;9.70;99.90
24035;DHT22;12242;50.952;4.678;2023-12-22T06:06:38;9.60;99.90
24035;DHT22;12242;50.952;4.678;2023-12-22T06:09:06;9.70;99.90
24035;DHT22;12242;50.952;4.678;2023-12-22T06:11:33;9.80;99.90
24035;DHT22;12242;50.952;4.678;2023-12-22T06:14:01;9.80;99.90
24035;DHT22;12242;50.952;4.678;2023-12-22T06:16:29;9.80;99.90
24035;DHT22;12242;50.952;4.678;2023-12-22T06:19:04;9.80;99.90
24035;DHT22;12242;50.952;4.678;2023-12-22T06:21:32;9.80;99.90
24035;DHT22;12242;50.952;4.678;2023-12-22T06:24:00;9.80;99.90
24035;DHT22;12242;50.952;4.678;2023-12-22T06:26:27;9.80;99.90
24035;DHT22;12242;50.952;4.678;2023-12-22T06:28:55;9.80;99.90
24035;DHT22;12242;50.952;4.678;2023-12-22T06:31:26;9.80;99.90
24035;DHT22;12242;50.952;4.678;2023-12-22T06:33:54;9.80;99.90
24035;DHT22;12242;50.952;4.678;2023-12-22T06:36:23;9.70;99.90
24035;DHT22;12242;50.952;4.678;2023-12-22T06:38:52;9.70;99.90
24035;DHT22;12242;50.952;4.678;2023-12-22T06:41:30;9.70;99.90
24035;DHT22;12242;50.952;4.678;2023-12-22T06:43:58;9.60;99.90
24035;DHT22;12242;50.952;4.678;2023-12-22T06:46:29;9.60;99.90
24035;DHT22;12242;50.952;4.678;2023-12-22T06:48:58;9.70;99.90
24035;DHT22;12242;50.952;4.678;2023-12-22T06:51:31;9.70;99.90
24035;DHT22;12242;50.952;4.678;2023-12-22T06:53:58;9.70;99.90
24035;DHT22;12242;50.952;4.678;2023-12-22T06:56:31;9.60;99.90
24035;DHT22;12242;50.952;4.678;2023-12-22T06:58:59;9.60;99.90
24035;DHT22;12242;50.952;4.678;2023-12-22T07:01:32;9.50;99.90
24035;DHT22;12242;50.952;4.678;2023-12-22T07:04:01;9.50;99.90
24035;DHT22;12242;50.952;4.678;2023-12-22T07:06:31;9.50;99.90
24035;DHT22;12242;50.952;4.678;2023-12-22T07:11:50;9.40;99.90
24035;DHT22;12242;50.952;4.678;2023-12-22T07:14:18;9.40;99.90
24035;DHT22;12242;50.952;4.678;2023-12-22T07:16:48;9.40;99.90
24035;DHT22;12242;50.952;4.678;2023-12-22T07:19:19;9.50;99.90
24035;DHT22;12242;50.952;4.678;2023-12-22T07:21:46;9.40;99.90
24035;DHT22;12242;50.952;4.678;2023-12-22T07:24:14;9.40;99.90
24035;DHT22;12242;50.952;4.678;2023-12-22T07:26:43;9.40;99.90
24035;DHT22;12242;50.952;4.678;2023-12-22T07:29:12;9.30;99.90
24035;DHT22;12242;50.952;4.678;2023-12-22T07:31:40;9.30;99.90
24035;DHT22;12242;50.952;4.678;2023-12-22T07:34:08;9.20;99.90
24035;DHT22;12242;50.952;4.678;2023-12-22T07:36:36;9.20;99.90
24035;DHT22;12242;50.952;4.678;2023-12-22T07:39:14;9.30;99.90
24035;DHT22;12242;50.952;4.678;2023-12-22T07:41:44;9.40;99.90
24035;DHT22;12242;50.952;4.678;2023-12-22T07:44:15;9.40;99.90
24035;DHT22;12242;50.952;4.678;2023-12-22T07:46:43;9.40;99.90
24035;DHT22;12242;50.952;4.678;2023-12-22T07:49:11;9.30;99.90
24035;DHT22;12242;50.952;4.678;2023-12-22T07:51:42;9.30;99.90
24035;DHT22;12242;50.952;4.678;2023-12-22T07:54:12;9.40;99.90
24035;DHT22;12242;50.952;4.678;2023-12-22T07:56:40;9.50;99.90
24035;DHT22;12242;50.952;4.678;2023-12-22T07:59:08;9.50;99.90
24035;DHT22;12242;50.952;4.678;2023-12-22T08:01:53;9.40;99.90
24035;DHT22;12242;50.952;4.678;2023-12-22T08:04:21;9.40;99.90
24035;DHT22;12242;50.952;4.678;2023-12-22T08:06:48;9.50;99.90
24035;DHT22;12242;50.952;4.678;2023-12-22T08:09:16;9.50;99.90
24035;DHT22;12242;50.952;4.678;2023-12-22T08:11:44;9.60;99.90
24035;DHT22;12242;50.952;4.678;2023-12-22T08:14:14;9.60;99.90
24035;DHT22;12242;50.952;4.678;2023-12-22T08:16:44;9.60;99.90
24035;DHT22;12242;50.952;4.678;2023-12-22T08:19:12;9.50;99.90
24035;DHT22;12242;50.952;4.678;2023-12-22T08:21:42;9.50;99.90
24035;DHT22;12242;50.952;4.678;2023-12-22T08:24:13;9.50;99.90
24035;DHT22;12242;50.952;4.678;2023-12-22T08:26:51;9.60;99.90
24035;DHT22;12242;50.952;4.678;2023-12-22T08:29:22;9.60;99.90
24035;DHT22;12242;50.952;4.678;2023-12-22T08:31:52;9.60;99.90
24035;DHT22;12242;50.952;4.678;2023-12-22T08:34:20;9.70;99.90
24035;DHT22;12242;50.952;4.678;2023-12-22T08:36:48;9.70;99.90
24035;DHT22;12242;50.952;4.678;2023-12-22T08:39:16;9.70;99.90
24035;DHT22;12242;50.952;4.678;2023-12-22T08:41:47;9.70;99.90
24035;DHT22;12242;50.952;4.678;2023-12-22T08:44:14;9.70;99.90
24035;DHT22;12242;50.952;4.678;2023-12-22T08:46:44;9.90;99.90
24035;DHT22;12242;50.952;4.678;2023-12-22T08:49:12;9.90;99.90
24035;DHT22;12242;50.952;4.678;2023-12-22T08:51:39;10.00;99.90
24035;DHT22;12242;50.952;4.678;2023-12-22T08:54:08;10.00;99.90
24035;DHT22;12242;50.952;4.678;2023-12-22T08:56:37;10.10;99.90
24035;DHT22;12242;50.952;4.678;2023-12-22T08:59:07;10.10;99.90
24035;DHT22;12242;50.952;4.678;2023-12-22T09:01:36;10.10;99.90
24035;DHT22;12242;50.952;4.678;2023-12-22T09:04:04;10.00;99.90
24035;DHT22;12242;50.952;4.678;2023-12-22T09:06:33;10.10;99.90
24035;DHT22;12242;50.952;4.678;2023-12-22T09:09:01;10.20;99.90
24035;DHT22;12242;50.952;4.678;2023-12-22T09:11:28;10.20;99.90
24035;DHT22;12242;50.952;4.678;2023-12-22T09:13:57;10.20;99.90
24035;DHT22;12242;50.952;4.678;2023-12-22T09:16:28;10.10;99.90
24035;DHT22;12242;50.952;4.678;2023-12-22T09:18:55;10.10;99.90
24035;DHT22;12242;50.952;4.678;2023-12-22T09:21:23;10.10;99.90
24035;DHT22;12242;50.952;4.678;2023-12-22T09:23:51;10.30;99.90
24035;DHT22;12242;50.952;4.678;2023-12-22T09:26:19;10.40;99.90
24035;DHT22;12242;50.952;4.678;2023-12-22T09:28:47;10.60;99.90
24035;DHT22;12242;50.952;4.678;2023-12-22T09:31:15;10.60;99.90
24035;DHT22;12242;50.952;4.678;2023-12-22T09:33:43;10.60;99.90
24035;DHT22;12242;50.952;4.678;2023-12-22T09:36:10;10.60;99.90
24035;DHT22;12242;50.952;4.678;2023-12-22T09:38:39;10.60;99.90
24035;DHT22;12242;50.952;4.678;2023-12-22T09:41:09;10.60;99.90
24035;DHT22;12242;50.952;4.678;2023-12-22T09:43:39;10.60;99.90
24035;DHT22;12242;50.952;4.678;2023-12-22T09:46:07;10.70;99.90
24035;DHT22;12242;50.952;4.678;2023-12-22T09:48:36;10.60;99.90
24035;DHT22;12242;50.952;4.678;2023-12-22T09:51:07;10.50;99.90
24035;DHT22;12242;50.952;4.678;2023-12-22T09:53:36;10.50;99.90
24035;DHT22;12242;50.952;4.678;2023-12-22T09:56:06;10.50;99.90
24035;DHT22;12242;50.952;4.678;2023-12-22T09:58:36;10.80;99.90
24035;DHT22;12242;50.952;4.678;2023-12-22T10:01:07;10.90;99.90
24035;DHT22;12242;50.952;4.678;2023-12-22T10:03:37;11.00;99.90
24035;DHT22;12242;50.952;4.678;2023-12-22T10:06:05;11.10;99.90
24035;DHT22;12242;50.952;4.678;2023-12-22T10:08:33;11.20;99.90
24035;DHT22;12242;50.952;4.678;2023-12-22T10:11:04;11.00;99.90
24035;DHT22;12242;50.952;4.678;2023-12-22T10:13:33;10.90;99.90
24035;DHT22;12242;50.952;4.678;2023-12-22T10:16:07;11.00;99.90
24035;DHT22;12242;50.952;4.678;2023-12-22T10:18:35;10.90;99.90
24035;DHT22;12242;50.952;4.678;2023-12-22T10:21:03;11.10;99.90
24035;DHT22;12242;50.952;4.678;2023-12-22T10:23:31;11.10;99.90
24035;DHT22;12242;50.952;4.678;2023-12-22T10:25:59;11.00;99.90
24035;DHT22;12242;50.952;4.678;2023-12-22T10:28:27;11.00;99.90
24035;DHT22;12242;50.952;4.678;2023-12-22T10:30:56;11.00;99.90
24035;DHT22;12242;50.952;4.678;2023-12-22T10:33:31;11.20;99.90
24035;DHT22;12242;50.952;4.678;2023-12-22T10:35:59;11.40;99.90
24035;DHT22;12242;50.952;4.678;2023-12-22T10:38:35;11.50;99.90
24035;DHT22;12242;50.952;4.678;2023-12-22T10:41:03;11.60;99.90
24035;DHT22;12242;50.952;4.678;2023-12-22T10:43:40;11.60;99.90
24035;DHT22;12242;50.952;4.678;2023-12-22T10:46:08;11.70;99.90
24035;DHT22;12242;50.952;4.678;2023-12-22T10:48:41;11.70;99.90
24035;DHT22;12242;50.952;4.678;2023-12-22T10:51:10;11.70;99.90
24035;DHT22;12242;50.952;4.678;2023-12-22T10:53:44;11.70;99.90
24035;DHT22;12242;50.952;4.678;2023-12-22T10:56:12;11.90;99.90
24035;DHT22;12242;50.952;4.678;2023-12-22T10:58:41;12.00;99.90
24035;DHT22;12242;50.952;4.678;2023-12-22T11:01:11;12.20;99.90
24035;DHT22;12242;50.952;4.678;2023-12-22T11:03:44;12.10;99.90
24035;DHT22;12242;50.952;4.678;2023-12-22T11:06:12;12.10;99.90
24035;DHT22;12242;50.952;4.678;2023-12-22T11:08:43;12.20;99.90
24035;DHT22;12242;50.952;4.678;2023-12-22T11:11:19;11.90;99.90
24035;DHT22;12242;50.952;4.678;2023-12-22T11:13:49;11.90;99.90
24035;DHT22;12242;50.952;4.678;2023-12-22T11:16:18;11.90;99.90
24035;DHT22;12242;50.952;4.678;2023-12-22T11:18:48;11.90;99.90
24035;DHT22;12242;50.952;4.678;2023-12-22T11:21:19;12.00;99.90
24035;DHT22;12242;50.952;4.678;2023-12-22T11:23:52;11.90;99.90
24035;DHT22;12242;50.952;4.678;2023-12-22T11:26:24;11.80;99.90
24035;DHT22;12242;50.952;4.678;2023-12-22T11:28:52;11.60;99.90
24035;DHT22;12242;50.952;4.678;2023-12-22T11:31:20;11.50;99.90
24035;DHT22;12242;50.952;4.678;2023-12-22T11:33:51;11.40;99.90
24035;DHT22;12242;50.952;4.678;2023-12-22T11:36:35;11.30;99.90
24035;DHT22;12242;50.952;4.678;2023-12-22T11:39:05;11.40;99.90
24035;DHT22;12242;50.952;4.678;2023-12-22T11:41:36;11.20;99.90
24035;DHT22;12242;50.952;4.678;2023-12-22T11:44:05;11.10;99.90
24035;DHT22;12242;50.952;4.678;2023-12-22T11:46:33;11.30;99.90
24035;DHT22;12242;50.952;4.678;2023-12-22T11:49:02;11.40;99.90
24035;DHT22;12242;50.952;4.678;2023-12-22T11:51:33;11.60;99.90
24035;DHT22;12242;50.952;4.678;2023-12-22T11:54:03;11.80;99.90
24035;DHT22;12242;50.952;4.678;2023-12-22T11:56:31;11.80;99.90
24035;DHT22;12242;50.952;4.678;2023-12-22T11:58:59;11.80;99.90
24035;DHT22;12242;50.952;4.678;2023-12-22T12:01:29;11.80;99.90
24035;DHT22;12242;50.952;4.678;2023-12-22T12:04:02;11.70;99.90
24035;DHT22;12242;50.952;4.678;2023-12-22T12:06:33;11.80;99.90
24035;DHT22;12242;50.952;4.678;2023-12-22T12:09:04;12.10;99.90
24035;DHT22;12242;50.952;4.678;2023-12-22T12:14:22;12.50;99.90
24035;DHT22;12242;50.952;4.678;2023-12-22T12:17:07;12.50;99.90
24035;DHT22;12242;50.952;4.678;2023-12-22T12:19:39;12.50;99.90
24035;DHT22;12242;50.952;4.678;2023-12-22T12:22:11;12.60;99.90
24035;DHT22;12242;50.952;4.678;2023-12-22T12:24:42;12.70;99.90
24035;DHT22;12242;50.952;4.678;2023-12-22T12:27:10;12.70;99.90
24035;DHT22;12242;50.952;4.678;2023-12-22T12:29:39;12.70;99.90
24035;DHT22;12242;50.952;4.678;2023-12-22T12:32:07;12.70;99.90
24035;DHT22;12242;50.952;4.678;2023-12-22T12:34:37;12.70;99.90
24035;DHT22;12242;50.952;4.678;2023-12-22T12:37:05;12.80;99.90
24035;DHT22;12242;50.952;4.678;2023-12-22T12:39:34;12.80;99.90
24035;DHT22;12242;50.952;4.678;2023-12-22T12:42:07;12.70;99.90
24035;DHT22;12242;50.952;4.678;2023-12-22T12:44:35;12.70;99.90
24035;DHT22;12242;50.952;4.678;2023-12-22T12:47:12;12.60;99.90
24035;DHT22;12242;50.952;4.678;2023-12-22T12:49:40;12.70;99.90
24035;DHT22;12242;50.952;4.678;2023-12-22T12:52:15;12.70;99.90
24035;DHT22;12242;50.952;4.678;2023-12-22T12:54:43;12.60;99.90
24035;DHT22;12242;50.952;4.678;2023-12-22T12:57:16;12.70;99.90
24035;DHT22;12242;50.952;4.678;2023-12-22T12:59:51;12.60;99.90
24035;DHT22;12242;50.952;4.678;2023-12-22T13:02:19;12.40;99.90
24035;DHT22;12242;50.952;4.678;2023-12-22T13:04:54;12.30;99.90
24035;DHT22;12242;50.952;4.678;2023-12-22T13:07:25;12.30;99.90
24035;DHT22;12242;50.952;4.678;2023-12-22T13:09:53;12.30;99.90
24035;DHT22;12242;50.952;4.678;2023-12-22T13:12:24;12.20;99.90
24035;DHT22;12242;50.952;4.678;2023-12-22T13:14:53;12.20;99.90
24035;DHT22;12242;50.952;4.678;2023-12-22T13:17:21;12.10;99.90
24035;DHT22;12242;50.952;4.678;2023-12-22T13:19:49;12.20;99.90
24035;DHT22;12242;50.952;4.678;2023-12-22T13:22:18;12.20;99.90
24035;DHT22;12242;50.952;4.678;2023-12-22T13:25:00;12.30;99.90
24035;DHT22;12242;50.952;4.678;2023-12-22T13:27:28;12.10;99.90
24035;DHT22;12242;50.952;4.678;2023-12-22T13:29:55;12.20;99.90
24035;DHT22;12242;50.952;4.678;2023-12-22T13:32:23;12.20;99.90
24035;DHT22;12242;50.952;4.678;2023-12-22T13:34:55;12.20;99.90
24035;DHT22;12242;50.952;4.678;2023-12-22T13:37:24;12.10;99.90
24035;DHT22;12242;50.952;4.678;2023-12-22T13:39:54;12.10;99.90
24035;DHT22;12242;50.952;4.678;2023-12-22T13:42:24;12.10;99.90
24035;DHT22;12242;50.952;4.678;2023-12-22T13:44:52;12.10;99.90
24035;DHT22;12242;50.952;4.678;2023-12-22T13:47:21;12.20;99.90
24035;DHT22;12242;50.952;4.678;2023-12-22T13:49:52;12.20;99.90
24035;DHT22;12242;50.952;4.678;2023-12-22T13:52:32;12.10;99.90
24035;DHT22;12242;50.952;4.678;2023-12-22T13:55:10;12.00;99.90
24035;DHT22;12242;50.952;4.678;2023-12-22T13:57:38;12.00;99.90
24035;DHT22;12242;50.952;4.678;2023-12-22T14:02:46;12.10;99.90
24035;DHT22;12242;50.952;4.678;2023-12-22T14:05:14;12.00;99.90
24035;DHT22;12242;50.952;4.678;2023-12-22T14:07:43;11.90;99.90
24035;DHT22;12242;50.952;4.678;2023-12-22T14:10:12;11.90;99.90
24035;DHT22;12242;50.952;4.678;2023-12-22T14:12:40;11.90;99.90
24035;DHT22;12242;50.952;4.678;2023-12-22T14:15:12;11.90;99.90
24035;DHT22;12242;50.952;4.678;2023-12-22T14:17:40;11.90;99.90
24035;DHT22;12242;50.952;4.678;2023-12-22T14:20:11;12.00;99.90
24035;DHT22;12242;50.952;4.678;2023-12-22T14:22:48;12.00;99.90
24035;DHT22;12242;50.952;4.678;2023-12-22T14:25:18;12.10;99.90
24035;DHT22;12242;50.952;4.678;2023-12-22T14:27:48;11.90;99.90
24035;DHT22;12242;50.952;4.678;2023-12-22T14:30:17;12.00;99.90
24035;DHT22;12242;50.952;4.678;2023-12-22T14:32:45;11.90;99.90
24035;DHT22;12242;50.952;4.678;2023-12-22T14:35:13;11.90;99.90
24035;DHT22;12242;50.952;4.678;2023-12-22T14:37:41;12.00;99.90
24035;DHT22;12242;50.952;4.678;2023-12-22T14:40:10;12.10;99.90
24035;DHT22;12242;50.952;4.678;2023-12-22T14:42:38;12.00;99.90
24035;DHT22;12242;50.952;4.678;2023-12-22T14:45:07;11.90;99.90
24035;DHT22;12242;50.952;4.678;2023-12-22T14:47:36;12.00;99.90
24035;DHT22;12242;50.952;4.678;2023-12-22T14:50:05;12.00;99.90
24035;DHT22;12242;50.952;4.678;2023-12-22T14:52:33;11.80;99.90
24035;DHT22;12242;50.952;4.678;2023-12-22T14:55:01;11.70;99.90
24035;DHT22;12242;50.952;4.678;2023-12-22T14:57:30;11.90;99.90
24035;DHT22;12242;50.952;4.678;2023-12-22T14:59:57;11.90;99.90
24035;DHT22;12242;50.952;4.678;2023-12-22T15:02:28;11.90;99.90
24035;DHT22;12242;50.952;4.678;2023-12-22T15:04:56;12.10;99.90
24035;DHT22;12242;50.952;4.678;2023-12-22T15:07:27;12.00;99.90
24035;DHT22;12242;50.952;4.678;2023-12-22T15:09:55;11.90;99.90
24035;DHT22;12242;50.952;4.678;2023-12-22T15:12:25;11.90;99.90
24035;DHT22;12242;50.952;4.678;2023-12-22T15:14:59;12.00;99.90
24035;DHT22;12242;50.952;4.678;2023-12-22T15:17:30;12.10;99.90
24035;DHT22;12242;50.952;4.678;2023-12-22T15:20:02;12.10;99.90
24035;DHT22;12242;50.952;4.678;2023-12-22T15:22:34;12.00;99.90
24035;DHT22;12242;50.952;4.678;2023-12-22T15:25:02;12.10;99.90
24035;DHT22;12242;50.952;4.678;2023-12-22T15:27:29;12.10;99.90
24035;DHT22;12242;50.952;4.678;2023-12-22T15:29:58;12.20;99.90
24035;DHT22;12242;50.952;4.678;2023-12-22T15:32:25;12.10;99.90
24035;DHT22;12242;50.952;4.678;2023-12-22T15:34:53;12.10;99.90
24035;DHT22;12242;50.952;4.678;2023-12-22T15:37:21;12.10;99.90
24035;DHT22;12242;50.952;4.678;2023-12-22T15:39:48;12.10;99.90
24035;DHT22;12242;50.952;4.678;2023-12-22T15:42:16;12.10;99.90
24035;DHT22;12242;50.952;4.678;2023-12-22T15:44:46;12.20;99.90
24035;DHT22;12242;50.952;4.678;2023-12-22T15:47:14;12.30;99.90
24035;DHT22;12242;50.952;4.678;2023-12-22T15:49:42;12.30;99.90
24035;DHT22;12242;50.952;4.678;2023-12-22T15:52:12;12.20;99.90
24035;DHT22;12242;50.952;4.678;2023-12-22T15:54:40;12.20;99.90
24035;DHT22;12242;50.952;4.678;2023-12-22T15:57:10;12.10;99.90